Accueil
METAR-TAF:

METAR-TAF

Aéroports :

Chulitna, Alaska, États-Unis

latitude: 62-53N, longitude: 149-50W, altitude: 381 m

Observation

Le bulletin a été fait il y a 14 heures et 7 minutes, à 01:53 UTC
Vent 4 kt de nord/nord-ouest
Température -5°C
Humidité 93%
Pression 993 hPa
Visibilité: 0.4 km
forte neige

METAR: PAEC 140153Z 34004KT 1/4SM +SN VV001 M05/M06 A2932 RMK NOSPECI LAST

Heure: 07:00 (16:00 UTC)


TAF: absent

Observations et prévisions météorologiques de plus de 4000 aéroports (messages METAR et TAF).

Les stations disponibles sont représentées par des disques jaunes et rouges sur la carte.

Passer la souris dessus pour voir le nom de la station.

Cliquer dessus pour voir les observations et prévisions météorologiques.

Pour changer de carte: cliquez sur les boutons verts avec une croix noire pour zoomer, sur le bouton vert avec un tiret pour effectuer un zoom arrière, ou sur les flèches vertes pour les cartes adjacentes.


METAR-TAF: